Angora, Nebraska
Current Conditions -  °F | °C
As of 12:53 AM on Wednesday 26 Nov 2014 (Local Time) from KAIA Reporting Station
Broken Clouds Broken Clouds  
Wind Chill: -7°   Ceiling: 12000
Heat Index:   Visibility: 10mi
Dew Point: -6°   Wind: 23mph
Humidity: 66%   Direction: 330°NNW
Pressure: 30.04"   Gusts: 36mph
Location:  41.85°N, 103.13°W
Report Text: KAIA 260753Z AUTO 33020G31KT 10SM BKN120 00/M06 A3004 RMK AO2 PK WND 32033/0738 SLP180 T00001056
Loading
Personal Weather Stations






























Interactive Weather Map New forecast layout! Learn more

10-Day Weather Forecast

Advertisements
Track Severe Weather on mobile